createdAt,value
2018-12-30T00:00:42.451Z,2.86
2018-12-30T00:03:11.380Z,2.92
2018-12-30T00:05:40.328Z,2.86
2018-12-30T00:08:08.951Z,2.79
2018-12-30T00:10:37.499Z,2.68
2018-12-30T00:13:06.212Z,2.65
2018-12-30T00:15:35.972Z,2.67
2018-12-30T00:18:04.978Z,2.65
2018-12-30T00:20:34.215Z,2.58
2018-12-30T00:23:02.750Z,2.60
2018-12-30T00:25:31.326Z,2.66
2018-12-30T00:28:00.256Z,2.68
2018-12-30T00:30:28.816Z,2.59
2018-12-30T00:32:57.291Z,2.60
2018-12-30T00:35:26.113Z,2.57
2018-12-30T00:37:54.725Z,2.64
2018-12-30T00:40:23.733Z,2.72
2018-12-30T00:42:52.257Z,2.63
2018-12-30T00:45:20.871Z,2.61
2018-12-30T00:47:49.435Z,2.59
2018-12-30T00:50:18.440Z,2.57
2018-12-30T00:52:47.045Z,2.51
2018-12-30T00:55:15.586Z,2.48
2018-12-30T00:57:44.376Z,2.55
2018-12-30T01:00:13.061Z,2.50
2018-12-30T01:02:41.695Z,2.55
2018-12-30T01:05:10.553Z,2.51
2018-12-30T01:07:39.426Z,2.47
2018-12-30T01:10:09.308Z,2.51
2018-12-30T01:12:37.990Z,2.48
2018-12-30T01:15:06.784Z,2.55
2018-12-30T01:17:35.260Z,2.62
2018-12-30T01:20:04.389Z,2.66
2018-12-30T01:22:33.091Z,2.57
2018-12-30T01:25:01.636Z,2.51
2018-12-30T01:27:30.382Z,2.58
2018-12-30T01:29:58.942Z,2.53
2018-12-30T01:32:27.492Z,2.47
2018-12-30T01:34:56.814Z,2.46
2018-12-30T01:37:25.432Z,2.60
2018-12-30T01:39:53.989Z,2.62
2018-12-30T01:42:22.786Z,2.61
2018-12-30T01:44:51.330Z,2.56
2018-12-30T01:47:19.962Z,2.62
2018-12-30T01:49:48.505Z,2.67
2018-12-30T01:52:16.976Z,2.53
2018-12-30T01:54:45.880Z,2.48
2018-12-30T01:57:14.500Z,2.52
2018-12-30T01:59:43.046Z,2.49
2018-12-30T02:02:11.707Z,2.51
2018-12-30T02:04:40.315Z,2.50
2018-12-30T02:07:08.861Z,2.45
2018-12-30T02:09:37.691Z,2.47
2018-12-30T02:12:06.307Z,2.45
2018-12-30T02:14:35.213Z,2.43
2018-12-30T02:17:03.776Z,2.49
2018-12-30T02:19:32.335Z,2.58
2018-12-30T02:22:01.225Z,2.58
2018-12-30T02:24:29.841Z,2.62
2018-12-30T02:26:58.340Z,2.51
2018-12-30T02:29:26.901Z,2.52
2018-12-30T02:31:55.521Z,2.58
2018-12-30T02:34:24.186Z,2.61
2018-12-30T02:36:52.661Z,2.58
2018-12-30T02:39:21.227Z,2.56
2018-12-30T02:41:49.840Z,2.58
2018-12-30T02:44:18.435Z,2.64
2018-12-30T02:46:47.051Z,2.65
2018-12-30T02:49:15.596Z,2.67
2018-12-30T02:51:50.183Z,2.60
2018-12-30T02:54:14.686Z,2.53
2018-12-30T02:56:43.578Z,2.56
2018-12-30T02:59:12.429Z,2.58
2018-12-30T03:01:40.981Z,2.61
2018-12-30T03:04:09.527Z,2.58
2018-12-30T03:06:38.170Z,2.59
2018-12-30T03:09:07.763Z,2.65
2018-12-30T03:11:36.304Z,2.65
2018-12-30T03:14:04.959Z,2.57
2018-12-30T03:16:33.951Z,2.56
2018-12-30T03:19:02.514Z,2.69
2018-12-30T03:21:31.008Z,2.63
2018-12-30T03:23:59.542Z,2.65
2018-12-30T03:26:28.470Z,2.58
2018-12-30T03:28:57.030Z,2.61
2018-12-30T03:31:25.641Z,2.58
2018-12-30T03:33:54.626Z,2.69
2018-12-30T03:36:23.167Z,2.66
2018-12-30T03:38:51.791Z,2.60
2018-12-30T03:41:20.538Z,2.56
2018-12-30T03:43:49.110Z,2.60
2018-12-30T03:46:17.673Z,2.59
2018-12-30T03:48:46.434Z,2.66
2018-12-30T03:51:15.063Z,2.62
2018-12-30T03:53:43.613Z,2.62
2018-12-30T03:56:12.551Z,2.61
2018-12-30T03:58:41.169Z,2.74
2018-12-30T04:01:09.786Z,2.71
2018-12-30T04:03:38.559Z,2.74
2018-12-30T04:06:07.187Z,2.78
2018-12-30T04:08:35.843Z,2.70
2018-12-30T04:11:04.699Z,2.72
2018-12-30T04:13:33.245Z,2.77
2018-12-30T04:16:01.865Z,2.64
2018-12-30T04:18:30.455Z,2.71
2018-12-30T04:20:59.014Z,2.64
2018-12-30T04:23:33.807Z,2.65
2018-12-30T04:26:02.470Z,2.62
2018-12-30T04:28:31.015Z,2.74
2018-12-30T04:30:59.567Z,2.72
2018-12-30T04:33:28.394Z,2.75
2018-12-30T04:35:57.016Z,2.68
2018-12-30T04:38:25.571Z,2.75
2018-12-30T04:40:54.549Z,2.66
2018-12-30T04:43:23.109Z,2.65
2018-12-30T04:45:51.650Z,2.65
2018-12-30T04:48:20.255Z,2.62
2018-12-30T04:50:48.865Z,2.59
2018-12-30T04:53:17.424Z,2.67
2018-12-30T04:55:46.362Z,2.67
2018-12-30T04:58:14.899Z,2.67
2018-12-30T05:00:43.516Z,2.69
2018-12-30T05:03:12.419Z,2.69
2018-12-30T05:05:40.913Z,2.66
2018-12-30T05:08:09.477Z,2.80
2018-12-30T05:10:38.376Z,2.86
2018-12-30T05:13:06.923Z,2.95
2018-12-30T05:15:35.521Z,2.94
2018-12-30T05:18:04.456Z,2.88
2018-12-30T05:20:33.089Z,2.89
2018-12-30T05:23:01.651Z,2.84
2018-12-30T05:25:30.491Z,2.81
2018-12-30T05:27:59.044Z,2.78
2018-12-30T05:30:27.679Z,2.66
2018-12-30T05:32:56.509Z,2.65
2018-12-30T05:35:25.127Z,2.62
2018-12-30T05:37:53.745Z,2.67
2018-12-30T05:40:22.609Z,2.70
2018-12-30T05:42:51.160Z,2.57
2018-12-30T05:45:23.923Z,2.57
2018-12-30T05:47:52.752Z,2.61
2018-12-30T05:50:21.372Z,2.58
2018-12-30T05:52:49.929Z,2.58
2018-12-30T05:55:18.457Z,2.61
2018-12-30T05:57:47.217Z,2.70
2018-12-30T06:00:15.837Z,2.68
2018-12-30T06:02:44.768Z,2.78
2018-12-30T06:05:13.319Z,2.88
2018-12-30T06:07:41.947Z,2.92
2018-12-30T06:10:10.835Z,2.95
2018-12-30T06:12:39.386Z,2.92
2018-12-30T06:15:08.032Z,2.92
2018-12-30T06:17:36.993Z,2.96
2018-12-30T06:20:05.816Z,2.87
2018-12-30T06:22:34.383Z,2.83
2018-12-30T06:25:03.039Z,2.79
2018-12-30T06:27:31.587Z,2.87
2018-12-30T06:30:00.166Z,2.87
2018-12-30T06:32:28.702Z,2.90
2018-12-30T06:34:57.333Z,3.00
2018-12-30T06:37:25.895Z,3.05
2018-12-30T06:39:54.737Z,3.12
2018-12-30T06:42:23.348Z,3.21
2018-12-30T06:44:51.849Z,3.17
2018-12-30T06:47:21.206Z,3.27
2018-12-30T06:49:49.818Z,3.32
2018-12-30T06:52:18.374Z,3.37
2018-12-30T06:54:51.567Z,3.34
2018-12-30T06:57:20.139Z,3.38
2018-12-30T06:59:48.757Z,3.46
2018-12-30T07:02:18.126Z,3.42
2018-12-30T07:04:46.674Z,3.36
2018-12-30T07:07:15.229Z,3.31
2018-12-30T07:09:44.085Z,3.38
2018-12-30T07:12:12.719Z,3.28
2018-12-30T07:14:41.198Z,3.41
2018-12-30T07:17:09.787Z,3.46
2018-12-30T07:19:38.417Z,3.54
2018-12-30T07:22:06.988Z,3.59
2018-12-30T07:24:35.782Z,3.63
2018-12-30T07:27:04.398Z,3.69
2018-12-30T07:29:32.941Z,3.80
2018-12-30T07:32:01.793Z,3.77
2018-12-30T07:34:30.420Z,3.72
2018-12-30T07:36:58.967Z,3.73
2018-12-30T07:39:27.565Z,3.80
2018-12-30T07:41:56.127Z,3.84
2018-12-30T07:44:24.748Z,3.74
2018-12-30T07:46:53.641Z,3.86
2018-12-30T07:49:22.198Z,3.88
2018-12-30T07:51:50.748Z,3.88
2018-12-30T07:54:19.436Z,3.93
2018-12-30T07:56:47.989Z,3.98
2018-12-30T07:59:16.473Z,4.01
2018-12-30T08:01:45.076Z,3.97
2018-12-30T08:04:13.707Z,4.08
2018-12-30T08:06:42.273Z,4.25
2018-12-30T08:09:11.208Z,4.25
2018-12-30T08:11:39.764Z,4.34
2018-12-30T08:14:08.329Z,4.36
2018-12-30T08:16:37.243Z,4.34
2018-12-30T08:19:05.876Z,4.34
2018-12-30T08:21:34.436Z,4.45
2018-12-30T08:24:03.109Z,4.44
2018-12-30T08:26:31.658Z,4.50
2018-12-30T08:29:00.303Z,4.67
2018-12-30T08:31:29.279Z,4.54
2018-12-30T08:33:57.849Z,4.70
2018-12-30T08:36:26.477Z,4.79
2018-12-30T08:38:55.414Z,4.78
2018-12-30T08:41:24.063Z,4.81
2018-12-30T08:43:52.645Z,4.66
2018-12-30T08:46:21.484Z,4.58
2018-12-30T08:48:49.970Z,4.75
2018-12-30T08:51:18.535Z,4.67
2018-12-30T08:53:47.417Z,4.56
2018-12-30T08:56:15.970Z,4.47
2018-12-30T08:58:44.471Z,4.44
2018-12-30T09:01:13.287Z,4.48
2018-12-30T09:03:41.910Z,4.51
2018-12-30T09:06:10.535Z,4.54
2018-12-30T09:08:39.335Z,4.60
2018-12-30T09:11:07.885Z,4.60
2018-12-30T09:13:36.514Z,4.49
2018-12-30T09:16:05.396Z,4.66
2018-12-30T09:18:33.879Z,4.73
2018-12-30T09:21:02.448Z,4.65
2018-12-30T09:23:37.260Z,4.61
2018-12-30T09:26:01.351Z,4.67
2018-12-30T09:28:33.308Z,4.73
2018-12-30T09:31:01.855Z,4.88
2018-12-30T09:33:30.342Z,4.72
2018-12-30T09:35:58.986Z,4.64
2018-12-30T09:38:27.731Z,4.65
2018-12-30T09:40:56.295Z,4.49
2018-12-30T09:43:25.130Z,4.61
2018-12-30T09:45:53.680Z,4.64
2018-12-30T09:48:22.304Z,4.56
2018-12-30T09:50:50.875Z,4.46
2018-12-30T09:53:19.689Z,4.56
2018-12-30T09:55:48.235Z,4.43
2018-12-30T09:58:16.860Z,4.37
2018-12-30T10:00:45.529Z,4.43
2018-12-30T10:03:14.097Z,4.45
2018-12-30T10:05:42.681Z,4.51
2018-12-30T10:08:11.267Z,4.57
2018-12-30T10:10:39.828Z,4.47
2018-12-30T10:13:08.449Z,4.45
2018-12-30T10:15:37.235Z,4.60
2018-12-30T10:18:05.716Z,4.64
2018-12-30T10:20:34.334Z,4.47
2018-12-30T10:23:03.224Z,4.51
2018-12-30T10:25:31.787Z,4.33
2018-12-30T10:28:00.343Z,4.37
2018-12-30T10:30:29.226Z,4.47
2018-12-30T10:32:57.862Z,4.49
2018-12-30T10:35:26.481Z,4.41
2018-12-30T10:37:55.281Z,4.28
2018-12-30T10:40:23.833Z,4.26
2018-12-30T10:42:52.621Z,4.33
2018-12-30T10:45:21.456Z,4.29
2018-12-30T10:47:49.953Z,4.30
2018-12-30T10:50:18.588Z,4.31
2018-12-30T10:52:47.515Z,4.42
2018-12-30T10:55:16.097Z,4.29
2018-12-30T10:57:44.586Z,4.14
2018-12-30T11:00:13.562Z,4.09
2018-12-30T11:02:42.208Z,4.19
2018-12-30T11:05:10.827Z,4.05
2018-12-30T11:07:39.633Z,4.03
2018-12-30T11:10:08.356Z,4.07
2018-12-30T11:12:36.991Z,4.02
2018-12-30T11:15:06.344Z,4.04
2018-12-30T11:17:34.902Z,4.20
2018-12-30T11:20:03.529Z,4.15
2018-12-30T11:22:32.365Z,4.25
2018-12-30T11:25:00.909Z,4.31
2018-12-30T11:27:29.539Z,4.15
2018-12-30T11:29:58.223Z,4.09
2018-12-30T11:32:27.064Z,4.07
2018-12-30T11:34:55.619Z,3.93
2018-12-30T11:37:24.339Z,4.10
2018-12-30T11:39:52.971Z,4.12
2018-12-30T11:42:21.450Z,4.03
2018-12-30T11:44:50.304Z,4.14
2018-12-30T11:47:18.957Z,4.04
2018-12-30T11:49:47.585Z,4.16
2018-12-30T11:52:16.351Z,4.01
2018-12-30T11:54:44.909Z,4.00
2018-12-30T11:57:13.533Z,4.18
2018-12-30T11:59:42.220Z,4.05
2018-12-30T12:02:10.783Z,3.93
2018-12-30T12:04:39.334Z,3.98
2018-12-30T12:07:08.060Z,3.95
2018-12-30T12:09:36.626Z,3.95
2018-12-30T12:12:05.365Z,4.01
2018-12-30T12:14:34.221Z,4.06
2018-12-30T12:17:02.781Z,3.97
2018-12-30T12:19:31.351Z,4.02
2018-12-30T12:22:00.017Z,3.95
2018-12-30T12:24:28.591Z,3.96
2018-12-30T12:26:57.136Z,4.13
2018-12-30T12:29:26.026Z,4.11
2018-12-30T12:31:54.652Z,4.04
2018-12-30T12:34:23.222Z,4.04
2018-12-30T12:36:51.973Z,4.03
2018-12-30T12:39:20.524Z,3.99
2018-12-30T12:41:49.091Z,3.98
2018-12-30T12:44:18.033Z,4.10
2018-12-30T12:46:46.653Z,4.03
2018-12-30T12:49:15.297Z,4.18
2018-12-30T12:51:44.179Z,4.27
2018-12-30T12:54:12.737Z,4.38
2018-12-30T12:56:41.362Z,4.38
2018-12-30T12:59:10.120Z,4.54
2018-12-30T13:01:39.345Z,4.56
2018-12-30T13:04:07.966Z,4.46
2018-12-30T13:06:36.808Z,4.43
2018-12-30T13:09:06.652Z,4.55
2018-12-30T13:11:35.146Z,4.62
2018-12-30T13:14:03.998Z,4.43
2018-12-30T13:16:32.620Z,4.41
2018-12-30T13:19:01.196Z,4.30
2018-12-30T13:21:29.806Z,4.22
2018-12-30T13:23:58.357Z,4.16
2018-12-30T13:26:26.980Z,4.09
2018-12-30T13:28:55.721Z,4.08
2018-12-30T13:31:24.458Z,3.99
2018-12-30T13:33:53.027Z,3.98
2018-12-30T13:36:21.887Z,3.95
2018-12-30T13:38:50.510Z,3.93
2018-12-30T13:41:19.135Z,3.94
2018-12-30T13:43:47.795Z,3.95
2018-12-30T13:46:16.287Z,3.99
2018-12-30T13:48:44.837Z,3.85
2018-12-30T13:51:13.503Z,3.85
2018-12-30T13:53:42.140Z,3.74
2018-12-30T13:56:10.615Z,3.68
2018-12-30T13:58:39.504Z,3.68
2018-12-30T14:01:09.152Z,3.67
2018-12-30T14:03:37.788Z,3.78
2018-12-30T14:06:06.910Z,3.85
2018-12-30T14:08:35.410Z,3.71
2018-12-30T14:11:03.960Z,3.60
2018-12-30T14:13:32.974Z,3.67
2018-12-30T14:16:01.599Z,3.68
2018-12-30T14:18:30.157Z,3.62
2018-12-30T14:20:59.015Z,3.54
2018-12-30T14:23:27.634Z,3.60
2018-12-30T14:25:56.270Z,3.53
2018-12-30T14:28:24.859Z,3.65
2018-12-30T14:30:53.355Z,3.67
2018-12-30T14:33:21.993Z,3.55
2018-12-30T14:35:50.920Z,3.64
2018-12-30T14:38:19.491Z,3.68
2018-12-30T14:40:48.124Z,3.57
2018-12-30T14:43:16.693Z,3.70
2018-12-30T14:45:45.317Z,3.56
2018-12-30T14:48:13.961Z,3.55
2018-12-30T14:50:42.829Z,3.60
2018-12-30T14:53:19.088Z,3.49
2018-12-30T14:55:41.572Z,3.55
2018-12-30T14:58:10.240Z,3.50
2018-12-30T15:00:38.861Z,3.52
2018-12-30T15:03:07.463Z,3.60
2018-12-30T15:05:36.372Z,3.64
2018-12-30T15:08:05.021Z,3.59
2018-12-30T15:10:33.654Z,3.53
2018-12-30T15:13:02.236Z,3.51
2018-12-30T15:15:30.825Z,3.52
2018-12-30T15:17:59.446Z,3.54
2018-12-30T15:20:28.033Z,3.45
2018-12-30T15:22:56.660Z,3.45
2018-12-30T15:25:25.276Z,3.53
2018-12-30T15:27:54.166Z,3.36
2018-12-30T15:30:22.642Z,3.37
2018-12-30T15:32:51.274Z,3.44
2018-12-30T15:35:19.976Z,3.37
2018-12-30T15:37:48.634Z,3.41
2018-12-30T15:40:17.138Z,3.44
2018-12-30T15:42:45.792Z,3.39
2018-12-30T15:45:14.428Z,3.31
2018-12-30T15:47:43.060Z,3.22
2018-12-30T15:50:11.728Z,3.15
2018-12-30T15:52:40.382Z,3.07
2018-12-30T15:55:09.131Z,3.07
2018-12-30T15:57:37.948Z,3.03
2018-12-30T16:00:08.868Z,3.05
2018-12-30T16:02:37.544Z,2.98
2018-12-30T16:05:06.465Z,2.96
2018-12-30T16:07:34.954Z,2.92
2018-12-30T16:10:04.585Z,2.92
2018-12-30T16:12:33.650Z,2.96
2018-12-30T16:15:02.279Z,2.97
2018-12-30T16:17:30.829Z,2.96
2018-12-30T16:19:59.512Z,2.99
2018-12-30T16:22:28.146Z,3.00
2018-12-30T16:24:56.777Z,3.03
2018-12-30T16:27:25.295Z,3.02
2018-12-30T16:29:53.848Z,3.06
2018-12-30T16:32:22.484Z,3.07
2018-12-30T16:34:51.430Z,3.01
2018-12-30T16:37:19.985Z,3.01
2018-12-30T16:39:48.620Z,2.97
2018-12-30T16:42:17.452Z,3.06
2018-12-30T16:44:45.954Z,3.12
2018-12-30T16:47:14.582Z,3.10
2018-12-30T16:49:43.504Z,3.17
2018-12-30T16:52:11.998Z,3.09
2018-12-30T16:54:40.628Z,3.05
2018-12-30T16:57:09.600Z,3.07
2018-12-30T16:59:38.219Z,3.05
2018-12-30T17:02:06.788Z,3.12
2018-12-30T17:04:35.516Z,3.00
2018-12-30T17:07:04.138Z,2.98
2018-12-30T17:09:32.868Z,2.86
2018-12-30T17:12:01.402Z,2.87
2018-12-30T17:14:29.885Z,2.95
2018-12-30T17:16:59.632Z,2.85
2018-12-30T17:19:28.396Z,2.87
2018-12-30T17:21:57.024Z,2.88
2018-12-30T17:24:25.727Z,2.91
2018-12-30T17:26:54.461Z,2.88
2018-12-30T17:29:23.160Z,2.78
2018-12-30T17:31:51.839Z,2.83
2018-12-30T17:34:20.756Z,2.80
2018-12-30T17:36:49.312Z,2.82
2018-12-30T17:39:17.807Z,2.82
2018-12-30T17:41:46.712Z,2.77
2018-12-30T17:44:15.333Z,2.83
2018-12-30T17:46:43.816Z,2.81
2018-12-30T17:49:12.665Z,2.84
2018-12-30T17:51:41.302Z,2.96
2018-12-30T17:54:15.132Z,2.97
2018-12-30T17:56:40.448Z,2.87
2018-12-30T17:59:09.068Z,2.85
2018-12-30T18:01:37.639Z,2.94
2018-12-30T18:04:06.523Z,2.88
2018-12-30T18:06:35.148Z,2.85
2018-12-30T18:09:04.426Z,2.86
2018-12-30T18:11:32.972Z,2.92
2018-12-30T18:14:01.466Z,3.04
2018-12-30T18:16:30.112Z,3.05
2018-12-30T18:18:59.055Z,2.98
2018-12-30T18:21:27.539Z,3.01
2018-12-30T18:23:56.103Z,3.09
2018-12-30T18:26:24.999Z,2.97
2018-12-30T18:28:53.705Z,3.07
2018-12-30T18:31:22.270Z,3.04
2018-12-30T18:33:50.923Z,3.11
2018-12-30T18:36:19.559Z,3.12
2018-12-30T18:38:48.180Z,3.11
2018-12-30T18:41:16.927Z,3.14
2018-12-30T18:43:45.487Z,3.14
2018-12-30T18:46:14.130Z,3.07
2018-12-30T18:48:43.066Z,3.02
2018-12-30T18:51:11.711Z,3.00
2018-12-30T18:53:40.274Z,2.94
2018-12-30T18:56:09.057Z,2.97
2018-12-30T18:58:37.692Z,3.02
2018-12-30T19:01:06.315Z,2.97
2018-12-30T19:03:35.172Z,2.93
2018-12-30T19:06:03.799Z,3.04
2018-12-30T19:08:32.431Z,2.95
2018-12-30T19:11:01.334Z,2.96
2018-12-30T19:13:29.826Z,2.90
2018-12-30T19:15:58.448Z,2.88
2018-12-30T19:18:27.192Z,2.99
2018-12-30T19:20:55.825Z,3.10
2018-12-30T19:23:24.539Z,3.11
2018-12-30T19:26:00.880Z,2.98
2018-12-30T19:28:23.649Z,3.01
2018-12-30T19:30:52.284Z,3.05
2018-12-30T19:33:20.962Z,3.08
2018-12-30T19:35:49.441Z,3.03
2018-12-30T19:38:17.932Z,2.96
2018-12-30T19:40:46.899Z,2.87
2018-12-30T19:43:15.533Z,2.81
2018-12-30T19:45:44.017Z,2.83
2018-12-30T19:48:12.859Z,2.85
2018-12-30T19:50:41.502Z,2.88
2018-12-30T19:53:10.120Z,2.86
2018-12-30T19:55:38.767Z,2.85
2018-12-30T19:58:07.396Z,2.80
2018-12-30T20:00:36.018Z,2.78
2018-12-30T20:03:04.882Z,2.78
2018-12-30T20:05:33.516Z,2.88
2018-12-30T20:08:02.192Z,2.82
2018-12-30T20:10:38.223Z,2.79
2018-12-30T20:13:09.075Z,2.86
2018-12-30T20:15:37.104Z,2.91
2018-12-30T20:18:05.727Z,2.96
2018-12-30T20:20:34.345Z,3.04
2018-12-30T20:23:02.921Z,3.07
2018-12-30T20:25:31.546Z,3.05
2018-12-30T20:28:00.170Z,2.94
2018-12-30T20:30:28.663Z,2.85
2018-12-30T20:32:57.143Z,2.81
2018-12-30T20:35:25.809Z,2.76
2018-12-30T20:37:54.313Z,2.69
2018-12-30T20:40:22.933Z,2.66
2018-12-30T20:42:51.610Z,2.67
2018-12-30T20:45:20.090Z,2.62
2018-12-30T20:47:48.643Z,2.69
2018-12-30T20:50:17.569Z,2.66
2018-12-30T20:52:46.314Z,2.63
2018-12-30T20:55:14.812Z,2.62
2018-12-30T20:57:43.641Z,2.66
2018-12-30T21:00:12.737Z,2.62
2018-12-30T21:02:41.361Z,2.69
2018-12-30T21:05:10.187Z,2.72
2018-12-30T21:07:38.734Z,2.71
2018-12-30T21:10:08.179Z,2.72
2018-12-30T21:12:36.850Z,2.70
2018-12-30T21:15:06.516Z,2.78
2018-12-30T21:17:35.007Z,2.84
2018-12-30T21:20:03.919Z,2.81
2018-12-30T21:22:32.561Z,2.73
2018-12-30T21:25:01.052Z,2.67
2018-12-30T21:27:29.808Z,2.70
2018-12-30T21:29:58.428Z,2.77
2018-12-30T21:32:27.116Z,2.70
2018-12-30T21:34:55.850Z,2.73
2018-12-30T21:37:24.340Z,2.66
2018-12-30T21:39:53.037Z,2.77
2018-12-30T21:42:21.984Z,2.66
2018-12-30T21:44:50.478Z,2.77
2018-12-30T21:47:18.963Z,2.79
2018-12-30T21:49:47.632Z,2.80
2018-12-30T21:52:16.267Z,2.76
2018-12-30T21:54:44.828Z,2.76
2018-12-30T21:57:13.691Z,2.74
2018-12-30T21:59:42.171Z,2.77
2018-12-30T22:02:10.724Z,2.75
2018-12-30T22:04:39.535Z,2.69
2018-12-30T22:07:08.154Z,2.74
2018-12-30T22:09:36.648Z,2.94
2018-12-30T22:12:05.562Z,3.04
2018-12-30T22:14:34.194Z,3.03
2018-12-30T22:17:02.814Z,2.96
2018-12-30T22:19:31.659Z,3.02
2018-12-30T22:22:00.161Z,3.08
2018-12-30T22:24:28.795Z,3.08
2018-12-30T22:26:57.812Z,3.08
2018-12-30T22:29:26.365Z,2.98
2018-12-30T22:31:54.920Z,2.96
2018-12-30T22:34:23.872Z,3.01
2018-12-30T22:36:52.364Z,2.87
2018-12-30T22:39:20.997Z,2.91
2018-12-30T22:41:49.944Z,2.92
2018-12-30T22:44:18.422Z,2.92
2018-12-30T22:46:46.986Z,2.91
2018-12-30T22:49:15.619Z,2.81
2018-12-30T22:51:44.244Z,2.82
2018-12-30T22:54:13.041Z,2.95
2018-12-30T22:56:41.598Z,2.91
2018-12-30T22:59:10.225Z,2.85
2018-12-30T23:01:39.211Z,2.80
2018-12-30T23:04:07.710Z,2.80
2018-12-30T23:06:36.248Z,2.68
2018-12-30T23:09:06.896Z,2.73
2018-12-30T23:11:35.511Z,2.66
2018-12-30T23:14:04.080Z,2.69
2018-12-30T23:16:32.743Z,2.69
2018-12-30T23:19:01.232Z,2.74
2018-12-30T23:21:29.781Z,2.80
2018-12-30T23:23:58.705Z,2.75
2018-12-30T23:26:27.336Z,2.69
2018-12-30T23:28:55.841Z,2.59
2018-12-30T23:31:24.795Z,2.58
2018-12-30T23:33:53.408Z,2.65
2018-12-30T23:36:22.043Z,2.59
2018-12-30T23:38:50.599Z,2.63
2018-12-30T23:41:19.163Z,2.51
2018-12-30T23:43:48.083Z,2.51
2018-12-30T23:46:16.720Z,2.53
2018-12-30T23:48:45.272Z,2.46
2018-12-30T23:51:14.137Z,2.48
2018-12-30T23:53:42.767Z,2.50
2018-12-30T23:56:11.261Z,2.49
2018-12-30T23:58:40.201Z,2.52
